createdAt,value
2023-01-26T00:00:42.154Z,101969.69
2023-01-26T00:04:43.810Z,101964.28
2023-01-26T00:08:50.324Z,101959.03
2023-01-26T00:12:51.735Z,101958.31
2023-01-26T00:16:54.359Z,101951.00
2023-01-26T00:20:57.867Z,101950.88
2023-01-26T00:24:59.280Z,101946.16
2023-01-26T00:29:01.495Z,101946.59
2023-01-26T00:33:03.027Z,101934.94
2023-01-26T00:37:04.487Z,101919.84
2023-01-26T00:41:06.324Z,101924.00
2023-01-26T00:45:08.243Z,101918.69
2023-01-26T00:49:09.659Z,101912.69
2023-01-26T00:53:11.195Z,101908.91
2023-01-26T00:57:12.667Z,101915.88
2023-01-26T01:01:14.141Z,101913.66
2023-01-26T01:05:15.723Z,101902.97
2023-01-26T01:09:17.668Z,101908.81
2023-01-26T01:13:19.116Z,101910.16
2023-01-26T01:17:20.650Z,101906.50
2023-01-26T01:21:24.047Z,101901.00
2023-01-26T01:25:25.485Z,101907.94
2023-01-26T01:29:27.128Z,101897.50
2023-01-26T01:33:28.542Z,101894.75
2023-01-26T01:37:30.860Z,101894.31
2023-01-26T01:41:32.353Z,101890.91
2023-01-26T01:45:41.765Z,101880.84
2023-01-26T01:49:47.840Z,101875.44
2023-01-26T01:53:52.063Z,101879.56
2023-01-26T01:57:56.814Z,101869.03
2023-01-26T02:01:58.710Z,101871.34
2023-01-26T02:06:16.019Z,101869.53
2023-01-26T02:10:20.745Z,101860.28
2023-01-26T02:14:22.482Z,101849.03
2023-01-26T02:18:23.969Z,101843.91
2023-01-26T02:22:53.266Z,101844.81
2023-01-26T02:26:54.963Z,101836.78
2023-01-26T02:30:56.841Z,101825.09
2023-01-26T02:34:58.442Z,101822.44
2023-01-26T02:39:22.364Z,101816.41
2023-01-26T02:43:26.409Z,101806.38
2023-01-26T02:47:27.875Z,101799.09
2023-01-26T02:51:29.344Z,101804.50
2023-01-26T02:55:31.076Z,101806.72
2023-01-26T02:59:32.581Z,101798.19
2023-01-26T03:03:42.956Z,101798.75
2023-01-26T03:07:44.507Z,101797.38
2023-01-26T03:11:46.051Z,101799.00
2023-01-26T03:15:54.553Z,101807.72
2023-01-26T03:20:14.459Z,101806.63
2023-01-26T03:24:35.290Z,101794.69
2023-01-26T03:28:36.739Z,101799.28
2023-01-26T03:32:38.302Z,101788.13
2023-01-26T03:36:39.770Z,101795.09
2023-01-26T03:40:59.838Z,101789.38
2023-01-26T03:45:19.565Z,101789.41
2023-01-26T03:49:39.393Z,101782.59
2023-01-26T03:53:59.724Z,101785.16
2023-01-26T03:58:01.094Z,101798.47
2023-01-26T04:02:20.891Z,101792.66
2023-01-26T04:06:41.017Z,101797.59
2023-01-26T04:10:42.468Z,101786.00
2023-01-26T04:15:02.223Z,101782.88
2023-01-26T04:19:22.422Z,101773.47
2023-01-26T04:23:23.843Z,101768.69
2023-01-26T04:27:25.409Z,101766.97
2023-01-26T04:31:26.880Z,101762.56
2023-01-26T04:35:28.374Z,101757.38
2023-01-26T04:39:29.775Z,101762.31
2023-01-26T04:43:31.222Z,101755.25
2023-01-26T04:47:32.900Z,101760.47
2023-01-26T04:51:34.805Z,101766.13
2023-01-26T04:55:36.212Z,101752.34
2023-01-26T04:59:37.681Z,101759.13
2023-01-26T05:03:39.107Z,101742.63
2023-01-26T05:07:40.553Z,101744.19
2023-01-26T05:11:42.135Z,101741.31
2023-01-26T05:15:43.621Z,101737.00
2023-01-26T05:19:45.029Z,101741.09
2023-01-26T05:23:46.637Z,101738.94
2023-01-26T05:27:48.204Z,101740.81
2023-01-26T05:31:49.729Z,101742.09
2023-01-26T05:35:52.620Z,101740.28
2023-01-26T05:39:54.280Z,101739.81
2023-01-26T05:43:55.705Z,101739.22
2023-01-26T05:47:57.271Z,101741.03
2023-01-26T05:51:58.859Z,101739.88
2023-01-26T05:56:00.280Z,101738.84
2023-01-26T06:00:02.824Z,101738.88
2023-01-26T06:04:04.357Z,101746.88
2023-01-26T06:08:05.957Z,101745.31
2023-01-26T06:12:18.557Z,101747.06
2023-01-26T06:16:20.027Z,101745.28
2023-01-26T06:20:21.476Z,101747.63
2023-01-26T06:24:23.784Z,101747.47
2023-01-26T06:28:25.275Z,101751.38
2023-01-26T06:32:27.895Z,101751.34
2023-01-26T06:36:29.459Z,101751.50
2023-01-26T06:40:31.009Z,101744.28
2023-01-26T06:44:32.468Z,101741.56
2023-01-26T06:48:35.149Z,101749.81
2023-01-26T06:52:36.653Z,101750.50
2023-01-26T06:56:38.732Z,101748.00
2023-01-26T07:00:40.960Z,101756.75
2023-01-26T07:04:42.438Z,101750.38
2023-01-26T07:08:44.339Z,101751.00
2023-01-26T07:12:46.358Z,101755.50
2023-01-26T07:16:47.946Z,101743.16
2023-01-26T07:20:49.434Z,101747.00
2023-01-26T07:24:50.968Z,101750.31
2023-01-26T07:28:52.481Z,101757.38
2023-01-26T07:32:54.008Z,101750.03
2023-01-26T07:36:55.465Z,101755.00
2023-01-26T07:40:57.566Z,101754.19
2023-01-26T07:44:59.832Z,101760.91
2023-01-26T07:49:01.310Z,101758.81
2023-01-26T07:53:02.958Z,101760.28
2023-01-26T07:57:08.212Z,101761.94
2023-01-26T08:01:14.304Z,101761.03
2023-01-26T08:05:15.942Z,101762.75
2023-01-26T08:09:17.491Z,101768.88
2023-01-26T08:13:29.927Z,101767.09
2023-01-26T08:17:36.109Z,101767.69
2023-01-26T08:21:37.612Z,101777.94
2023-01-26T08:25:39.055Z,101772.81
2023-01-26T08:29:40.564Z,101767.47
2023-01-26T08:33:42.639Z,101766.94
2023-01-26T08:37:44.312Z,101766.13
2023-01-26T08:41:47.486Z,101767.66
2023-01-26T08:45:51.437Z,101755.66
2023-01-26T08:49:54.840Z,101765.91
2023-01-26T08:53:56.532Z,101757.69
2023-01-26T08:57:59.331Z,101762.38
2023-01-26T09:02:02.111Z,101768.31
2023-01-26T09:06:07.263Z,101769.56
2023-01-26T09:10:10.610Z,101780.25
2023-01-26T09:14:12.824Z,101779.78
2023-01-26T09:18:14.800Z,101782.94
2023-01-26T09:22:16.827Z,101794.22
2023-01-26T09:26:19.361Z,101791.59
2023-01-26T09:30:21.618Z,101782.13
2023-01-26T09:34:25.597Z,101793.06
2023-01-26T09:38:27.110Z,101789.88
2023-01-26T09:43:02.783Z,101773.88
2023-01-26T09:47:13.430Z,101783.59
2023-01-26T09:51:26.495Z,101782.19
2023-01-26T09:55:28.936Z,101784.09
2023-01-26T09:59:44.284Z,101773.09
2023-01-26T10:04:10.877Z,101771.19
2023-01-26T10:08:14.799Z,101773.34
2023-01-26T10:12:25.372Z,101765.97
2023-01-26T10:16:27.346Z,101764.72
2023-01-26T10:20:39.301Z,101761.63
2023-01-26T10:24:44.279Z,101752.91
2023-01-26T10:28:48.262Z,101747.81
2023-01-26T10:32:52.584Z,101752.53
2023-01-26T10:37:11.568Z,101750.38
2023-01-26T10:41:19.116Z,101736.47
2023-01-26T10:45:32.858Z,101727.91
2023-01-26T10:49:34.408Z,101720.47
2023-01-26T10:53:35.950Z,101711.88
2023-01-26T10:57:39.360Z,101705.00
2023-01-26T11:01:55.618Z,101709.44
2023-01-26T11:06:17.822Z,101697.81
2023-01-26T11:10:28.390Z,101696.97
2023-01-26T11:14:31.534Z,101710.00
2023-01-26T11:18:59.716Z,101708.63
2023-01-26T11:23:29.328Z,101695.66
2023-01-26T11:27:51.410Z,101704.84
2023-01-26T11:32:38.272Z,101697.72
2023-01-26T11:36:55.613Z,101687.97
2023-01-26T11:41:24.442Z,101683.06
2023-01-26T11:45:45.472Z,101685.59
2023-01-26T11:50:16.068Z,101674.41
2023-01-26T11:54:38.105Z,101675.78
2023-01-26T11:58:46.545Z,101672.63
2023-01-26T12:03:03.321Z,101668.47
2023-01-26T12:07:15.930Z,101660.00
2023-01-26T12:11:38.319Z,101657.38
2023-01-26T12:15:46.596Z,101646.59
2023-01-26T12:19:56.432Z,101648.19
2023-01-26T12:24:05.418Z,101633.28
2023-01-26T12:28:15.732Z,101616.78
2023-01-26T12:32:17.385Z,101629.69
2023-01-26T12:36:41.705Z,101618.59
2023-01-26T12:41:13.069Z,101625.16
2023-01-26T12:45:39.211Z,101617.72
2023-01-26T12:49:45.074Z,101609.63
2023-01-26T12:53:58.761Z,101608.09
2023-01-26T12:58:11.151Z,101605.06
2023-01-26T13:02:15.687Z,101611.28
2023-01-26T13:06:21.631Z,101609.94
2023-01-26T13:10:25.985Z,101613.28
2023-01-26T13:14:33.439Z,101613.28
2023-01-26T13:19:04.087Z,101611.06
2023-01-26T13:23:28.218Z,101622.31
2023-01-26T13:27:38.451Z,101616.03
2023-01-26T13:31:39.939Z,101617.94
2023-01-26T13:35:42.533Z,101625.06
2023-01-26T13:39:48.389Z,101633.13
2023-01-26T13:43:59.244Z,101631.25
2023-01-26T13:48:03.781Z,101630.34
2023-01-26T13:52:27.975Z,101635.34
2023-01-26T13:56:38.975Z,101646.97
2023-01-26T14:00:40.602Z,101640.78
2023-01-26T14:04:51.931Z,101641.69
2023-01-26T14:08:57.475Z,101644.69
2023-01-26T14:13:01.084Z,101646.84
2023-01-26T14:17:24.275Z,101642.44
2023-01-26T14:21:25.904Z,101636.72
2023-01-26T14:25:27.406Z,101638.00
2023-01-26T14:29:30.462Z,101639.09
2023-01-26T14:33:31.960Z,101634.78
2023-01-26T14:37:33.434Z,101638.63
2023-01-26T14:41:37.665Z,101633.00
2023-01-26T14:45:45.251Z,101641.75
2023-01-26T14:49:51.499Z,101641.84
2023-01-26T14:53:57.791Z,101646.63
2023-01-26T14:58:02.178Z,101647.56
2023-01-26T15:02:15.582Z,101650.31
2023-01-26T15:06:23.443Z,101639.56
2023-01-26T15:10:33.372Z,101644.53
2023-01-26T15:14:49.199Z,101650.75
2023-01-26T15:19:03.828Z,101648.47
2023-01-26T15:23:27.490Z,101654.78
2023-01-26T15:27:36.413Z,101651.03
2023-01-26T15:31:41.506Z,101656.38
2023-01-26T15:35:57.653Z,101659.94
2023-01-26T15:39:59.208Z,101663.97
2023-01-26T15:44:00.828Z,101669.34
2023-01-26T15:48:02.368Z,101670.56
2023-01-26T15:52:12.450Z,101668.44
2023-01-26T15:56:15.780Z,101661.66
2023-01-26T16:00:18.008Z,101671.03
2023-01-26T16:04:19.705Z,101664.38
2023-01-26T16:08:21.184Z,101663.25
2023-01-26T16:12:32.096Z,101672.13
2023-01-26T16:16:33.984Z,101675.22
2023-01-26T16:20:38.358Z,101674.50
2023-01-26T16:24:40.556Z,101676.38
2023-01-26T16:28:42.736Z,101668.56
2023-01-26T16:32:44.912Z,101667.97
2023-01-26T16:36:46.388Z,101664.78
2023-01-26T16:40:49.485Z,101654.22
2023-01-26T16:44:51.034Z,101655.00
2023-01-26T16:48:52.941Z,101658.56
2023-01-26T16:52:55.174Z,101652.81
2023-01-26T16:56:57.498Z,101660.22
2023-01-26T17:00:59.042Z,101664.09
2023-01-26T17:05:00.619Z,101657.47
2023-01-26T17:09:02.231Z,101659.00
2023-01-26T17:13:04.131Z,101658.16
2023-01-26T17:17:05.761Z,101660.03
2023-01-26T17:21:07.583Z,101661.19
2023-01-26T17:25:10.477Z,101649.63
2023-01-26T17:29:13.381Z,101658.38
2023-01-26T17:33:15.247Z,101660.59
2023-01-26T17:37:16.745Z,101663.53
2023-01-26T17:41:18.210Z,101657.84
2023-01-26T17:45:19.670Z,101660.41
2023-01-26T17:49:21.566Z,101669.59
2023-01-26T17:53:24.411Z,101675.97
2023-01-26T17:57:25.956Z,101677.38
2023-01-26T18:01:27.562Z,101688.25
2023-01-26T18:05:29.323Z,101680.75
2023-01-26T18:09:31.226Z,101683.38
2023-01-26T18:13:33.303Z,101691.94
2023-01-26T18:17:36.612Z,101694.41
2023-01-26T18:21:38.153Z,101690.63
2023-01-26T18:25:40.958Z,101690.06
2023-01-26T18:29:42.484Z,101687.66
2023-01-26T18:33:44.783Z,101693.00
2023-01-26T18:37:46.295Z,101690.00
2023-01-26T18:41:47.798Z,101686.81
2023-01-26T18:45:49.331Z,101688.50
2023-01-26T18:49:50.976Z,101687.53
2023-01-26T18:53:52.903Z,101688.78
2023-01-26T18:57:55.218Z,101686.78
2023-01-26T19:01:56.902Z,101685.28
2023-01-26T19:06:02.562Z,101687.41
2023-01-26T19:10:05.999Z,101690.31
2023-01-26T19:14:08.317Z,101697.06
2023-01-26T19:18:09.776Z,101695.19
2023-01-26T19:22:11.531Z,101701.50
2023-01-26T19:26:19.296Z,101696.69
2023-01-26T19:30:20.943Z,101701.22
2023-01-26T19:34:23.067Z,101703.19
2023-01-26T19:38:25.073Z,101699.31
2023-01-26T19:42:26.533Z,101689.56
2023-01-26T19:46:28.114Z,101697.59
2023-01-26T19:50:29.666Z,101693.19
2023-01-26T19:54:31.138Z,101696.72
2023-01-26T19:58:32.803Z,101695.66
2023-01-26T20:02:34.373Z,101695.22
2023-01-26T20:06:36.844Z,101698.84
2023-01-26T20:10:38.737Z,101697.47
2023-01-26T20:14:40.292Z,101688.97
2023-01-26T20:18:41.741Z,101694.44
2023-01-26T20:22:43.192Z,101693.41
2023-01-26T20:26:44.876Z,101695.00
2023-01-26T20:30:46.380Z,101696.97
2023-01-26T20:34:48.058Z,101703.88
2023-01-26T20:38:50.286Z,101702.50
2023-01-26T20:42:52.242Z,101717.06
2023-01-26T20:46:54.943Z,101717.91
2023-01-26T20:50:56.437Z,101711.19
2023-01-26T20:54:58.159Z,101710.66
2023-01-26T20:58:59.686Z,101710.94
2023-01-26T21:03:01.428Z,101704.94
2023-01-26T21:07:03.076Z,101707.72
2023-01-26T21:11:11.848Z,101701.38
2023-01-26T21:15:13.333Z,101714.63
2023-01-26T21:19:14.844Z,101716.13
2023-01-26T21:23:16.269Z,101712.00
2023-01-26T21:27:18.291Z,101714.09
2023-01-26T21:31:21.322Z,101709.94
2023-01-26T21:35:23.038Z,101712.75
2023-01-26T21:39:24.478Z,101710.03
2023-01-26T21:43:26.567Z,101700.88
2023-01-26T21:47:28.006Z,101691.50
2023-01-26T21:51:48.892Z,101691.81
2023-01-26T21:55:50.398Z,101695.38
2023-01-26T21:59:52.718Z,101694.31
2023-01-26T22:03:55.813Z,101700.31
2023-01-26T22:07:57.279Z,101696.53
2023-01-26T22:11:58.692Z,101708.84
2023-01-26T22:16:04.195Z,101709.69
2023-01-26T22:20:06.330Z,101710.53
2023-01-26T22:24:11.311Z,101703.69
2023-01-26T22:28:13.520Z,101710.25
2023-01-26T22:32:15.015Z,101718.94
2023-01-26T22:36:17.031Z,101711.31
2023-01-26T22:40:18.985Z,101719.19
2023-01-26T22:44:20.416Z,101721.09
2023-01-26T22:48:21.925Z,101719.50
2023-01-26T22:52:23.490Z,101715.72
2023-01-26T22:56:26.523Z,101723.34
2023-01-26T23:00:28.007Z,101711.63
2023-01-26T23:04:29.501Z,101709.66
2023-01-26T23:08:31.651Z,101713.53
2023-01-26T23:12:33.207Z,101709.19
2023-01-26T23:16:34.702Z,101707.53
2023-01-26T23:20:36.162Z,101711.63
2023-01-26T23:24:37.623Z,101709.44
2023-01-26T23:28:41.599Z,101708.09
2023-01-26T23:32:43.036Z,101705.03
2023-01-26T23:36:44.510Z,101708.03
2023-01-26T23:40:48.703Z,101705.88
2023-01-26T23:44:50.154Z,101713.81
2023-01-26T23:48:51.930Z,101707.28
2023-01-26T23:52:53.353Z,101710.56
2023-01-26T23:56:54.833Z,101710.88
